sensor_id;sensor_type;location;lat;lon;timestamp;pressure;altitude;pressure_sealevel;temperature;humidity
71424;BME280;59240;51.370;-0.486;2024-03-06T00:03:47;101742.09;;;4.87;78.23
71424;BME280;59240;51.370;-0.486;2024-03-06T00:08:44;101755.13;;;4.95;78.47
71424;BME280;59240;51.370;-0.486;2024-03-06T00:13:40;101769.75;;;4.94;78.65
71424;BME280;59240;51.370;-0.486;2024-03-06T00:18:37;101771.38;;;4.89;78.31
71424;BME280;59240;51.370;-0.486;2024-03-06T00:23:34;101741.78;;;4.69;78.39
71424;BME280;59240;51.370;-0.486;2024-03-06T00:28:32;101766.84;;;4.76;78.42
71424;BME280;59240;51.370;-0.486;2024-03-06T00:33:29;101780.53;;;4.72;78.43
71424;BME280;59240;51.370;-0.486;2024-03-06T00:38:27;101788.13;;;4.64;78.79
71424;BME280;59240;51.370;-0.486;2024-03-06T00:43:24;101788.06;;;4.60;78.79
71424;BME280;59240;51.370;-0.486;2024-03-06T00:48:21;101754.91;;;4.34;79.52
71424;BME280;59240;51.370;-0.486;2024-03-06T00:53:17;101774.94;;;4.48;79.70
71424;BME280;59240;51.370;-0.486;2024-03-06T00:58:14;101754.78;;;4.30;79.56
71424;BME280;59240;51.370;-0.486;2024-03-06T01:03:11;101792.03;;;4.43;79.92
71424;BME280;59240;51.370;-0.486;2024-03-06T01:08:08;101788.34;;;4.31;79.79
71424;BME280;59240;51.370;-0.486;2024-03-06T01:13:05;101797.66;;;4.23;79.79
71424;BME280;59240;51.370;-0.486;2024-03-06T01:18:02;101792.44;;;4.20;79.27
71424;BME280;59240;51.370;-0.486;2024-03-06T01:23:00;101797.53;;;4.17;79.48
71424;BME280;59240;51.370;-0.486;2024-03-06T01:27:57;101797.47;;;4.14;79.28
71424;BME280;59240;51.370;-0.486;2024-03-06T01:32:54;101783.34;;;3.97;79.30
71424;BME280;59240;51.370;-0.486;2024-03-06T01:37:51;101780.59;;;3.88;79.26
71424;BME280;59240;51.370;-0.486;2024-03-06T01:42:48;101812.69;;;4.02;79.35
71424;BME280;59240;51.370;-0.486;2024-03-06T01:47:46;101807.34;;;3.93;79.36
71424;BME280;59240;51.370;-0.486;2024-03-06T01:52:44;101814.16;;;3.91;79.19
71424;BME280;59240;51.370;-0.486;2024-03-06T01:57:41;101805.38;;;3.82;79.33
71424;BME280;59240;51.370;-0.486;2024-03-06T02:02:38;101813.91;;;3.78;79.53
71424;BME280;59240;51.370;-0.486;2024-03-06T02:07:36;101799.91;;;3.67;79.32
71424;BME280;59240;51.370;-0.486;2024-03-06T02:12:35;101799.78;;;3.63;79.41
71424;BME280;59240;51.370;-0.486;2024-03-06T02:17:31;101803.91;;;3.54;79.75
71424;BME280;59240;51.370;-0.486;2024-03-06T02:22:29;101801.16;;;3.47;79.53
71424;BME280;59240;51.370;-0.486;2024-03-06T02:27:26;101797.66;;;3.45;79.62
71424;BME280;59240;51.370;-0.486;2024-03-06T02:32:23;101780.09;;;3.28;79.91
71424;BME280;59240;51.370;-0.486;2024-03-06T02:37:20;101801.81;;;3.38;79.97
71424;BME280;59240;51.370;-0.486;2024-03-06T02:42:18;101801.72;;;3.35;80.14
71424;BME280;59240;51.370;-0.486;2024-03-06T02:47:15;101797.38;;;3.33;80.00
71424;BME280;59240;51.370;-0.486;2024-03-06T02:52:12;101795.50;;;3.25;80.04
71424;BME280;59240;51.370;-0.486;2024-03-06T02:57:09;101789.28;;;3.17;80.02
71424;BME280;59240;51.370;-0.486;2024-03-06T03:02:06;101788.28;;;3.12;80.10
71424;BME280;59240;51.370;-0.486;2024-03-06T03:07:03;101801.09;;;3.09;80.26
71424;BME280;59240;51.370;-0.486;2024-03-06T03:11:59;101798.38;;;3.03;80.13
71424;BME280;59240;51.370;-0.486;2024-03-06T03:16:56;101811.09;;;2.97;80.12
71424;BME280;59240;51.370;-0.486;2024-03-06T03:21:53;101805.81;;;2.92;80.22
71424;BME280;59240;51.370;-0.486;2024-03-06T03:26:50;101807.28;;;2.83;80.42
71424;BME280;59240;51.370;-0.486;2024-03-06T03:31:48;101804.63;;;2.80;80.26
71424;BME280;59240;51.370;-0.486;2024-03-06T03:36:45;101806.25;;;2.76;80.61
71424;BME280;59240;51.370;-0.486;2024-03-06T03:41:45;101813.00;;;2.72;80.67
71424;BME280;59240;51.370;-0.486;2024-03-06T03:46:43;101802.47;;;2.63;80.59
71424;BME280;59240;51.370;-0.486;2024-03-06T03:51:40;101812.78;;;2.63;80.70
71424;BME280;59240;51.370;-0.486;2024-03-06T03:56:37;101820.31;;;2.57;80.88
71424;BME280;59240;51.370;-0.486;2024-03-06T04:01:34;101809.88;;;2.51;80.98
71424;BME280;59240;51.370;-0.486;2024-03-06T04:06:31;101774.19;;;2.32;80.79
71424;BME280;59240;51.370;-0.486;2024-03-06T04:11:28;101798.50;;;2.43;81.13
71424;BME280;59240;51.370;-0.486;2024-03-06T04:16:26;101813.16;;;2.47;81.12
71424;BME280;59240;51.370;-0.486;2024-03-06T04:21:25;101808.69;;;2.40;81.17
71424;BME280;59240;51.370;-0.486;2024-03-06T04:26:22;101816.31;;;2.37;81.17
71424;BME280;59240;51.370;-0.486;2024-03-06T04:31:19;101826.66;;;2.38;81.03
71424;BME280;59240;51.370;-0.486;2024-03-06T04:36:16;101829.00;;;2.31;81.33
71424;BME280;59240;51.370;-0.486;2024-03-06T04:41:13;101802.88;;;2.15;81.22
71424;BME280;59240;51.370;-0.486;2024-03-06T04:46:13;101835.81;;;2.29;81.30
71424;BME280;59240;51.370;-0.486;2024-03-06T04:51:13;101842.69;;;2.30;81.23
71424;BME280;59240;51.370;-0.486;2024-03-06T04:56:09;101849.31;;;2.22;80.99
71424;BME280;59240;51.370;-0.486;2024-03-06T05:01:07;101857.09;;;2.25;81.74
71424;BME280;59240;51.370;-0.486;2024-03-06T05:06:05;101865.09;;;2.34;82.25
71424;BME280;59240;51.370;-0.486;2024-03-06T05:11:15;101839.28;;;2.31;82.74
71424;BME280;59240;51.370;-0.486;2024-03-06T05:16:26;101873.50;;;2.58;83.01
71424;BME280;59240;51.370;-0.486;2024-03-06T05:21:37;101877.25;;;2.69;83.45
71424;BME280;59240;51.370;-0.486;2024-03-06T05:26:47;101881.75;;;2.77;83.90
71424;BME280;59240;51.370;-0.486;2024-03-06T05:31:58;101901.06;;;2.94;84.48
71424;BME280;59240;51.370;-0.486;2024-03-06T05:37:09;101894.50;;;3.04;84.52
71424;BME280;59240;51.370;-0.486;2024-03-06T05:42:19;101896.59;;;3.18;84.79
71424;BME280;59240;51.370;-0.486;2024-03-06T05:47:33;101878.53;;;3.17;87.56
71424;BME280;59240;51.370;-0.486;2024-03-06T05:52:44;101909.16;;;3.39;85.88
71424;BME280;59240;51.370;-0.486;2024-03-06T05:57:54;101907.75;;;3.52;85.60
71424;BME280;59240;51.370;-0.486;2024-03-06T06:03:05;101901.13;;;3.63;85.66
71424;BME280;59240;51.370;-0.486;2024-03-06T06:08:02;101904.19;;;3.83;85.67
71424;BME280;59240;51.370;-0.486;2024-03-06T06:12:58;101898.47;;;3.95;85.72
71424;BME280;59240;51.370;-0.486;2024-03-06T06:17:56;101910.84;;;4.11;86.01
71424;BME280;59240;51.370;-0.486;2024-03-06T06:22:53;101923.13;;;4.21;86.03
71424;BME280;59240;51.370;-0.486;2024-03-06T06:27:50;101920.00;;;4.34;85.93
71424;BME280;59240;51.370;-0.486;2024-03-06T06:32:47;101927.06;;;4.45;88.00
71424;BME280;59240;51.370;-0.486;2024-03-06T06:37:44;101894.97;;;4.32;86.64
71424;BME280;59240;51.370;-0.486;2024-03-06T06:42:45;101932.50;;;4.57;87.15
71424;BME280;59240;51.370;-0.486;2024-03-06T06:47:47;101932.63;;;4.63;86.84
71424;BME280;59240;51.370;-0.486;2024-03-06T06:52:44;101939.63;;;4.67;86.70
71424;BME280;59240;51.370;-0.486;2024-03-06T06:57:41;101943.22;;;4.75;86.67
71424;BME280;59240;51.370;-0.486;2024-03-06T07:02:39;101954.72;;;4.91;86.83
71424;BME280;59240;51.370;-0.486;2024-03-06T07:07:37;101948.84;;;4.98;87.13
71424;BME280;59240;51.370;-0.486;2024-03-06T07:12:35;101954.09;;;5.03;87.17
71424;BME280;59240;51.370;-0.486;2024-03-06T07:17:32;101968.03;;;5.11;87.58
71424;BME280;59240;51.370;-0.486;2024-03-06T07:22:29;101952.69;;;5.18;87.29
71424;BME280;59240;51.370;-0.486;2024-03-06T07:27:26;101954.50;;;5.24;87.34
71424;BME280;59240;51.370;-0.486;2024-03-06T07:32:23;101941.63;;;5.26;87.25
71424;BME280;59240;51.370;-0.486;2024-03-06T07:37:22;101970.41;;;5.47;87.45
71424;BME280;59240;51.370;-0.486;2024-03-06T07:42:18;101910.59;;;5.26;87.57
71424;BME280;59240;51.370;-0.486;2024-03-06T07:47:15;101969.03;;;5.66;88.02
71424;BME280;59240;51.370;-0.486;2024-03-06T07:52:12;101985.78;;;5.88;88.32
71424;BME280;59240;51.370;-0.486;2024-03-06T07:57:09;101971.38;;;6.00;88.24
71424;BME280;59240;51.370;-0.486;2024-03-06T08:02:06;101988.84;;;6.17;88.41
71424;BME280;59240;51.370;-0.486;2024-03-06T08:07:04;101989.13;;;6.34;88.50
71424;BME280;59240;51.370;-0.486;2024-03-06T08:12:01;101999.72;;;6.50;88.61
71424;BME280;59240;51.370;-0.486;2024-03-06T08:16:58;101998.09;;;6.58;88.66
71424;BME280;59240;51.370;-0.486;2024-03-06T08:21:55;102001.72;;;6.70;88.56
71424;BME280;59240;51.370;-0.486;2024-03-06T08:26:52;101980.97;;;6.67;88.52
71424;BME280;59240;51.370;-0.486;2024-03-06T08:31:49;102001.03;;;6.84;88.51
71424;BME280;59240;51.370;-0.486;2024-03-06T08:36:46;102006.28;;;6.88;88.63
71424;BME280;59240;51.370;-0.486;2024-03-06T08:41:43;102004.53;;;6.87;88.76
71424;BME280;59240;51.370;-0.486;2024-03-06T08:46:39;102006.34;;;6.94;88.63
71424;BME280;59240;51.370;-0.486;2024-03-06T08:51:36;102015.78;;;6.90;88.97
71424;BME280;59240;51.370;-0.486;2024-03-06T08:56:33;102034.97;;;7.04;88.92
71424;BME280;59240;51.370;-0.486;2024-03-06T09:01:31;102025.53;;;7.08;89.06
71424;BME280;59240;51.370;-0.486;2024-03-06T09:06:28;102013.47;;;7.11;89.11
71424;BME280;59240;51.370;-0.486;2024-03-06T09:11:25;102040.56;;;7.38;89.57
71424;BME280;59240;51.370;-0.486;2024-03-06T09:16:21;102042.47;;;7.54;89.79
71424;BME280;59240;51.370;-0.486;2024-03-06T09:21:18;102047.75;;;7.63;89.38
71424;BME280;59240;51.370;-0.486;2024-03-06T09:26:17;102058.22;;;7.70;89.43
71424;BME280;59240;51.370;-0.486;2024-03-06T09:31:14;102060.81;;;7.74;89.41
71424;BME280;59240;51.370;-0.486;2024-03-06T09:36:10;102027.81;;;7.59;89.47
71424;BME280;59240;51.370;-0.486;2024-03-06T09:41:09;102061.88;;;7.94;89.22
71424;BME280;59240;51.370;-0.486;2024-03-06T09:46:06;102061.00;;;7.92;89.30
71424;BME280;59240;51.370;-0.486;2024-03-06T09:51:03;102064.47;;;7.94;89.02
71424;BME280;59240;51.370;-0.486;2024-03-06T09:56:00;102048.03;;;7.91;89.02
71424;BME280;59240;51.370;-0.486;2024-03-06T10:00:59;102068.13;;;8.15;89.36
71424;BME280;59240;51.370;-0.486;2024-03-06T10:05:57;102069.09;;;8.28;89.08
71424;BME280;59240;51.370;-0.486;2024-03-06T10:10:57;102074.44;;;8.40;89.15
71424;BME280;59240;51.370;-0.486;2024-03-06T10:16:04;102048.47;;;8.40;88.93
71424;BME280;59240;51.370;-0.486;2024-03-06T10:21:05;102051.16;;;8.52;88.87
71424;BME280;59240;51.370;-0.486;2024-03-06T10:26:02;102075.59;;;8.80;88.49
71424;BME280;59240;51.370;-0.486;2024-03-06T10:31:04;102075.66;;;8.94;88.56
71424;BME280;59240;51.370;-0.486;2024-03-06T10:36:04;102081.81;;;9.08;88.31
71424;BME280;59240;51.370;-0.486;2024-03-06T10:41:03;102085.31;;;9.19;88.00
71424;BME280;59240;51.370;-0.486;2024-03-06T10:46:06;102075.78;;;9.26;88.26
71424;BME280;59240;51.370;-0.486;2024-03-06T10:51:07;102080.22;;;9.44;87.97
71424;BME280;59240;51.370;-0.486;2024-03-06T10:56:08;102070.72;;;9.58;87.34
71424;BME280;59240;51.370;-0.486;2024-03-06T11:01:06;102058.59;;;9.63;87.09
71424;BME280;59240;51.370;-0.486;2024-03-06T11:06:03;102087.28;;;9.94;87.09
71424;BME280;59240;51.370;-0.486;2024-03-06T11:11:23;102090.75;;;10.14;85.99
71424;BME280;59240;51.370;-0.486;2024-03-06T11:16:28;102069.06;;;10.06;85.80
71424;BME280;59240;51.370;-0.486;2024-03-06T11:21:29;102063.88;;;10.20;85.86
71424;BME280;59240;51.370;-0.486;2024-03-06T11:26:29;102063.88;;;10.43;86.02
71424;BME280;59240;51.370;-0.486;2024-03-06T11:31:26;102087.28;;;10.85;85.72
71424;BME280;59240;51.370;-0.486;2024-03-06T11:36:27;102092.41;;;11.19;85.63
71424;BME280;59240;51.370;-0.486;2024-03-06T11:41:28;102104.47;;;11.44;84.91
71424;BME280;59240;51.370;-0.486;2024-03-06T11:46:47;102103.44;;;11.77;83.47
71424;BME280;59240;51.370;-0.486;2024-03-06T11:51:45;102069.47;;;11.79;84.72
71424;BME280;59240;51.370;-0.486;2024-03-06T11:56:44;102071.13;;;11.98;83.30
71424;BME280;59240;51.370;-0.486;2024-03-06T12:01:42;102069.22;;;12.19;82.66
71424;BME280;59240;51.370;-0.486;2024-03-06T12:06:39;102070.81;;;12.38;81.72
71424;BME280;59240;51.370;-0.486;2024-03-06T12:11:37;102080.97;;;12.72;80.52
71424;BME280;59240;51.370;-0.486;2024-03-06T12:16:34;102091.91;;;13.07;81.30
71424;BME280;59240;51.370;-0.486;2024-03-06T12:21:31;102065.38;;;13.38;80.31
71424;BME280;59240;51.370;-0.486;2024-03-06T12:26:28;102076.38;;;13.64;79.24
71424;BME280;59240;51.370;-0.486;2024-03-06T12:31:25;102062.97;;;13.84;78.78
71424;BME280;59240;51.370;-0.486;2024-03-06T12:36:25;102084.47;;;14.06;77.71
71424;BME280;59240;51.370;-0.486;2024-03-06T12:41:23;102053.09;;;14.03;76.86
71424;BME280;59240;51.370;-0.486;2024-03-06T12:46:23;102069.13;;;14.37;76.29
71424;BME280;59240;51.370;-0.486;2024-03-06T12:51:20;102066.38;;;14.48;74.99
71424;BME280;59240;51.370;-0.486;2024-03-06T12:56:17;102059.16;;;14.59;74.08
71424;BME280;59240;51.370;-0.486;2024-03-06T13:01:14;102035.25;;;14.74;73.97
71424;BME280;59240;51.370;-0.486;2024-03-06T13:06:11;102038.66;;;14.80;72.00
71424;BME280;59240;51.370;-0.486;2024-03-06T13:11:08;102035.09;;;14.82;72.03
71424;BME280;59240;51.370;-0.486;2024-03-06T13:16:06;102069.09;;;14.90;70.40
71424;BME280;59240;51.370;-0.486;2024-03-06T13:21:09;102063.97;;;14.84;69.78
71424;BME280;59240;51.370;-0.486;2024-03-06T13:26:06;102059.84;;;14.70;68.29
71424;BME280;59240;51.370;-0.486;2024-03-06T13:31:03;102051.53;;;14.44;69.59
71424;BME280;59240;51.370;-0.486;2024-03-06T13:36:00;102037.56;;;14.43;69.26
71424;BME280;59240;51.370;-0.486;2024-03-06T13:41:01;102054.88;;;14.54;70.06
71424;BME280;59240;51.370;-0.486;2024-03-06T13:46:01;102059.97;;;14.61;69.60
71424;BME280;59240;51.370;-0.486;2024-03-06T13:50:58;102046.28;;;14.44;69.25
71424;BME280;59240;51.370;-0.486;2024-03-06T13:55:55;102062.06;;;14.42;69.00
71424;BME280;59240;51.370;-0.486;2024-03-06T14:00:52;102062.59;;;14.61;68.70
71424;BME280;59240;51.370;-0.486;2024-03-06T14:05:49;102056.94;;;14.84;67.81
71424;BME280;59240;51.370;-0.486;2024-03-06T14:10:46;102045.19;;;15.02;67.67
71424;BME280;59240;51.370;-0.486;2024-03-06T14:15:43;102055.66;;;15.05;66.61
71424;BME280;59240;51.370;-0.486;2024-03-06T14:20:41;102058.31;;;15.02;66.30
71424;BME280;59240;51.370;-0.486;2024-03-06T14:25:37;102064.00;;;14.81;65.52
71424;BME280;59240;51.370;-0.486;2024-03-06T14:30:36;102066.69;;;14.77;65.06
71424;BME280;59240;51.370;-0.486;2024-03-06T14:35:34;102057.53;;;14.52;65.34
71424;BME280;59240;51.370;-0.486;2024-03-06T14:40:30;102056.16;;;14.30;65.67
71424;BME280;59240;51.370;-0.486;2024-03-06T14:45:28;102063.38;;;14.15;65.49
71424;BME280;59240;51.370;-0.486;2024-03-06T14:50:24;102033.28;;;13.87;65.42
71424;BME280;59240;51.370;-0.486;2024-03-06T14:55:21;102034.28;;;13.77;64.97
71424;BME280;59240;51.370;-0.486;2024-03-06T15:00:18;102045.56;;;13.82;65.08
71424;BME280;59240;51.370;-0.486;2024-03-06T15:05:17;102054.31;;;13.79;65.36
71424;BME280;59240;51.370;-0.486;2024-03-06T15:10:14;102055.22;;;13.80;65.31
71424;BME280;59240;51.370;-0.486;2024-03-06T15:15:11;102065.56;;;13.86;65.31
71424;BME280;59240;51.370;-0.486;2024-03-06T15:20:09;102055.06;;;13.89;65.57
71424;BME280;59240;51.370;-0.486;2024-03-06T15:25:08;102072.31;;;14.02;65.64
71424;BME280;59240;51.370;-0.486;2024-03-06T15:30:07;102059.13;;;14.08;65.15
71424;BME280;59240;51.370;-0.486;2024-03-06T15:35:05;102068.81;;;14.03;64.17
71424;BME280;59240;51.370;-0.486;2024-03-06T15:40:03;102035.25;;;13.71;63.59
71424;BME280;59240;51.370;-0.486;2024-03-06T15:45:03;102037.16;;;13.61;63.42
71424;BME280;59240;51.370;-0.486;2024-03-06T15:50:00;102022.66;;;13.36;63.05
71424;BME280;59240;51.370;-0.486;2024-03-06T15:54:57;102054.84;;;13.43;63.19
71424;BME280;59240;51.370;-0.486;2024-03-06T15:59:54;102067.22;;;13.33;63.16
71424;BME280;59240;51.370;-0.486;2024-03-06T16:04:51;102070.84;;;13.20;63.51
71424;BME280;59240;51.370;-0.486;2024-03-06T16:09:47;102069.91;;;13.24;63.36
71424;BME280;59240;51.370;-0.486;2024-03-06T16:14:47;102069.25;;;13.03;63.74
71424;BME280;59240;51.370;-0.486;2024-03-06T16:19:44;102043.41;;;12.79;63.91
71424;BME280;59240;51.370;-0.486;2024-03-06T16:24:42;102072.13;;;12.82;64.25
71424;BME280;59240;51.370;-0.486;2024-03-06T16:29:39;102075.63;;;12.81;63.79
71424;BME280;59240;51.370;-0.486;2024-03-06T16:34:36;102060.97;;;12.65;64.08
71424;BME280;59240;51.370;-0.486;2024-03-06T16:39:34;102084.34;;;12.80;63.69
71424;BME280;59240;51.370;-0.486;2024-03-06T16:44:31;102060.31;;;12.44;64.33
71424;BME280;59240;51.370;-0.486;2024-03-06T16:49:28;102089.88;;;12.49;64.25
71424;BME280;59240;51.370;-0.486;2024-03-06T16:54:26;102082.16;;;12.36;64.29
71424;BME280;59240;51.370;-0.486;2024-03-06T16:59:23;102077.84;;;12.30;64.75
71424;BME280;59240;51.370;-0.486;2024-03-06T17:04:23;102094.34;;;12.35;64.72
71424;BME280;59240;51.370;-0.486;2024-03-06T17:09:20;102064.06;;;12.13;65.03
71424;BME280;59240;51.370;-0.486;2024-03-06T17:14:17;102074.50;;;12.16;64.91
71424;BME280;59240;51.370;-0.486;2024-03-06T17:19:15;102079.69;;;12.22;65.15
71424;BME280;59240;51.370;-0.486;2024-03-06T17:24:12;102106.59;;;12.31;65.10
71424;BME280;59240;51.370;-0.486;2024-03-06T17:29:09;102095.31;;;12.25;65.43
71424;BME280;59240;51.370;-0.486;2024-03-06T17:34:06;102086.72;;;12.08;65.40
71424;BME280;59240;51.370;-0.486;2024-03-06T17:39:04;102113.69;;;12.11;65.39
71424;BME280;59240;51.370;-0.486;2024-03-06T17:44:05;102119.91;;;11.93;65.34
71424;BME280;59240;51.370;-0.486;2024-03-06T17:49:03;102118.22;;;11.78;65.51
71424;BME280;59240;51.370;-0.486;2024-03-06T17:53:59;102124.41;;;11.58;66.03
71424;BME280;59240;51.370;-0.486;2024-03-06T17:58:57;102124.50;;;11.41;66.27
71424;BME280;59240;51.370;-0.486;2024-03-06T18:03:53;102138.44;;;11.32;66.57
71424;BME280;59240;51.370;-0.486;2024-03-06T18:08:51;102144.56;;;11.16;66.69
71424;BME280;59240;51.370;-0.486;2024-03-06T18:13:48;102142.88;;;10.95;66.98
71424;BME280;59240;51.370;-0.486;2024-03-06T18:18:45;102148.13;;;10.78;67.25
71424;BME280;59240;51.370;-0.486;2024-03-06T18:23:42;102143.78;;;10.59;67.21
71424;BME280;59240;51.370;-0.486;2024-03-06T18:28:39;102159.44;;;10.59;67.33
71424;BME280;59240;51.370;-0.486;2024-03-06T18:33:36;102169.84;;;10.51;67.20
71424;BME280;59240;51.370;-0.486;2024-03-06T18:38:33;102174.16;;;10.29;67.67
71424;BME280;59240;51.370;-0.486;2024-03-06T18:43:30;102172.34;;;10.13;67.77
71424;BME280;59240;51.370;-0.486;2024-03-06T18:48:27;102187.06;;;10.02;68.27
71424;BME280;59240;51.370;-0.486;2024-03-06T18:53:24;102164.44;;;9.70;68.38
71424;BME280;59240;51.370;-0.486;2024-03-06T18:58:21;102200.84;;;9.66;68.88
71424;BME280;59240;51.370;-0.486;2024-03-06T19:03:18;102166.00;;;9.39;69.07
71424;BME280;59240;51.370;-0.486;2024-03-06T19:08:15;102165.06;;;9.20;69.34
71424;BME280;59240;51.370;-0.486;2024-03-06T19:13:13;102199.75;;;9.24;69.54
71424;BME280;59240;51.370;-0.486;2024-03-06T19:18:10;102203.13;;;9.08;69.57
71424;BME280;59240;51.370;-0.486;2024-03-06T19:23:07;102210.81;;;8.92;69.85
71424;BME280;59240;51.370;-0.486;2024-03-06T19:28:05;102195.81;;;8.59;70.22
71424;BME280;59240;51.370;-0.486;2024-03-06T19:33:03;102212.25;;;8.61;70.27
71424;BME280;59240;51.370;-0.486;2024-03-06T19:38:01;102215.59;;;8.48;70.38
71424;BME280;59240;51.370;-0.486;2024-03-06T19:42:57;102205.91;;;8.35;70.60
71424;BME280;59240;51.370;-0.486;2024-03-06T19:47:54;102223.94;;;8.19;70.89
71424;BME280;59240;51.370;-0.486;2024-03-06T19:52:51;102229.03;;;8.10;71.55
71424;BME280;59240;51.370;-0.486;2024-03-06T19:57:48;102193.34;;;7.91;71.94
71424;BME280;59240;51.370;-0.486;2024-03-06T20:02:45;102191.53;;;7.84;72.50
71424;BME280;59240;51.370;-0.486;2024-03-06T20:07:42;102215.91;;;8.00;72.64
71424;BME280;59240;51.370;-0.486;2024-03-06T20:12:39;102232.28;;;7.95;73.24
71424;BME280;59240;51.370;-0.486;2024-03-06T20:17:36;102231.34;;;7.89;73.42
71424;BME280;59240;51.370;-0.486;2024-03-06T20:22:33;102237.31;;;7.82;73.69
71424;BME280;59240;51.370;-0.486;2024-03-06T20:27:32;102236.31;;;7.71;73.89
71424;BME280;59240;51.370;-0.486;2024-03-06T20:32:31;102225.78;;;7.58;73.80
71424;BME280;59240;51.370;-0.486;2024-03-06T20:37:29;102236.03;;;7.51;73.86
71424;BME280;59240;51.370;-0.486;2024-03-06T20:42:25;102243.63;;;7.35;74.07
71424;BME280;59240;51.370;-0.486;2024-03-06T20:47:22;102212.09;;;7.08;74.22
71424;BME280;59240;51.370;-0.486;2024-03-06T20:52:20;102254.44;;;7.08;74.52
71424;BME280;59240;51.370;-0.486;2024-03-06T20:57:17;102230.69;;;6.84;75.14
71424;BME280;59240;51.370;-0.486;2024-03-06T21:02:16;102233.94;;;6.72;75.22
71424;BME280;59240;51.370;-0.486;2024-03-06T21:07:13;102251.16;;;6.69;75.22
71424;BME280;59240;51.370;-0.486;2024-03-06T21:12:09;102229.34;;;6.54;75.24
71424;BME280;59240;51.370;-0.486;2024-03-06T21:17:07;102227.41;;;6.44;75.37
71424;BME280;59240;51.370;-0.486;2024-03-06T21:22:04;102253.41;;;6.50;75.30
71424;BME280;59240;51.370;-0.486;2024-03-06T21:27:02;102254.88;;;6.36;75.83
71424;BME280;59240;51.370;-0.486;2024-03-06T21:31:59;102272.97;;;6.35;76.15
71424;BME280;59240;51.370;-0.486;2024-03-06T21:36:56;102268.50;;;6.26;76.28
71424;BME280;59240;51.370;-0.486;2024-03-06T21:41:53;102259.63;;;6.13;76.33
71424;BME280;59240;51.370;-0.486;2024-03-06T21:46:50;102265.56;;;6.09;76.68
71424;BME280;59240;51.370;-0.486;2024-03-06T21:51:47;102214.78;;;5.72;76.77
71424;BME280;59240;51.370;-0.486;2024-03-06T21:56:44;102248.72;;;5.89;77.21
71424;BME280;59240;51.370;-0.486;2024-03-06T22:01:41;102273.84;;;5.91;77.18
71424;BME280;59240;51.370;-0.486;2024-03-06T22:06:39;102252.66;;;5.70;77.51
71424;BME280;59240;51.370;-0.486;2024-03-06T22:11:42;102247.28;;;5.62;78.57
71424;BME280;59240;51.370;-0.486;2024-03-06T22:16:40;102273.22;;;5.65;77.88
71424;BME280;59240;51.370;-0.486;2024-03-06T22:21:36;102270.56;;;5.62;77.84
71424;BME280;59240;51.370;-0.486;2024-03-06T22:26:34;102268.75;;;5.57;78.10
71424;BME280;59240;51.370;-0.486;2024-03-06T22:31:31;102253.69;;;5.39;78.27
71424;BME280;59240;51.370;-0.486;2024-03-06T22:36:27;102275.38;;;5.45;78.82
71424;BME280;59240;51.370;-0.486;2024-03-06T22:41:24;102219.47;;;5.13;78.46
71424;BME280;59240;51.370;-0.486;2024-03-06T22:46:24;102277.19;;;5.49;78.25
71424;BME280;59240;51.370;-0.486;2024-03-06T22:51:21;102283.16;;;5.47;78.14
71424;BME280;59240;51.370;-0.486;2024-03-06T22:56:18;102257.00;;;5.35;78.28
71424;BME280;59240;51.370;-0.486;2024-03-06T23:01:16;102262.13;;;5.32;78.57
71424;BME280;59240;51.370;-0.486;2024-03-06T23:06:12;102263.72;;;5.27;78.76
71424;BME280;59240;51.370;-0.486;2024-03-06T23:11:09;102264.53;;;5.24;78.73
71424;BME280;59240;51.370;-0.486;2024-03-06T23:16:06;102245.22;;;5.08;78.38
71424;BME280;59240;51.370;-0.486;2024-03-06T23:21:03;102260.66;;;5.07;78.56
71424;BME280;59240;51.370;-0.486;2024-03-06T23:26:01;102267.56;;;5.08;78.62
71424;BME280;59240;51.370;-0.486;2024-03-06T23:30:57;102258.84;;;5.03;78.56
71424;BME280;59240;51.370;-0.486;2024-03-06T23:35:54;102214.84;;;4.63;78.51
71424;BME280;59240;51.370;-0.486;2024-03-06T23:40:51;102275.78;;;4.91;78.97
71424;BME280;59240;51.370;-0.486;2024-03-06T23:45:48;102245.22;;;4.74;78.79
71424;BME280;59240;51.370;-0.486;2024-03-06T23:50:45;102258.06;;;4.72;78.79
71424;BME280;59240;51.370;-0.486;2024-03-06T23:55:42;102272.69;;;4.72;79.24
